Time;durP1;ratioP1;P1;durP2;ratioP2;P2;SDS_P1;SDS_P2;PMS_P1;PMS_P2;Temp;Humidity;BMP_temperature;BMP_pressure;BME280_temperature;BME280_humidity;BME280_pressure;Samples;Min_cycle;Max_cycle;Signal;HPM_P1;HPM_P2
2022/07/13 00:01:11;;;;;;;44.53;9.75;;;;;;;30.74;46.98;100598.59;4214849;28;20109;-58
2022/07/13 00:03:15;;;;;;;49.42;10.52;;;;;;;30.74;47.21;100629.69;4214802;28;20097;-58
2022/07/13 00:05:19;;;;;;;55.83;10.07;;;;;;;30.74;47.04;100642.97;4214502;28;20058;-58
2022/07/13 00:07:20;;;;;;;35.55;9.82;;;;;;;30.75;47.26;100650.31;4214779;28;20032;-58
2022/07/13 00:09:24;;;;;;;42.30;9.52;;;;;;;30.70;46.77;100648.50;4214862;28;20141;-58
2022/07/13 00:11:26;;;;;;;32.95;9.48;;;;;;;30.75;46.94;100650.31;4214803;28;20085;-59
2022/07/13 00:13:27;;;;;;;46.22;8.60;;;;;;;30.73;47.23;100659.13;4214775;28;20464;-58
2022/07/13 00:15:28;;;;;;;47.58;9.32;;;;;;;30.73;46.85;100653.47;4214953;28;20036;-58
2022/07/13 00:17:30;;;;;;;47.63;10.00;;;;;;;30.73;47.00;100659.13;4215026;28;20028;-58
2022/07/13 00:19:31;;;;;;;38.63;9.68;;;;;;;30.72;46.89;100646.19;4214624;28;20544;-58
2022/07/13 00:21:35;;;;;;;44.40;9.68;;;;;;;30.74;46.91;100651.47;4215014;28;20039;-59
2022/07/13 00:23:36;;;;;;;35.90;7.88;;;;;;;30.72;46.98;100654.66;4214794;28;20102;-58
2022/07/13 00:25:38;;;;;;;30.65;7.82;;;;;;;30.63;46.94;100626.50;4214427;28;20032;-58
2022/07/13 00:27:39;;;;;;;33.38;7.68;;;;;;;30.72;46.91;100646.19;4214909;28;20442;-58
2022/07/13 00:29:40;;;;;;;26.88;7.47;;;;;;;30.72;47.13;100660.28;4214694;28;20044;-58
2022/07/13 00:31:46;;;;;;;28.60;7.00;;;;;;;30.68;46.94;100648.03;4214079;28;20113;-60
2022/07/13 00:33:48;;;;;;;30.85;7.78;;;;;;;30.68;46.88;100655.69;4214213;28;20433;-60
2022/07/13 00:35:49;;;;;;;29.08;7.78;;;;;;;30.71;47.00;100675.59;4214824;28;20106;-57
2022/07/13 00:37:51;;;;;;;20.55;7.00;;;;;;;30.71;46.93;100667.13;4214836;28;20040;-58
2022/07/13 00:39:52;;;;;;;27.67;8.48;;;;;;;30.70;47.07;100657.00;4214467;28;20043;-58
2022/07/13 00:41:53;;;;;;;22.60;6.80;;;;;;;30.68;46.74;100653.69;4214434;28;20105;-58
2022/07/13 00:44:08;;;;;;;23.77;7.22;;;;;;;30.68;46.75;100670.63;4214613;28;20040;-59
2022/07/13 00:46:13;;;;;;;32.03;8.18;;;;;;;30.69;46.95;100655.31;4214358;28;20036;-58
2022/07/13 00:48:15;;;;;;;25.05;7.50;;;;;;;30.69;47.09;100655.31;4213051;28;20074;-58
2022/07/13 00:50:17;;;;;;;28.73;7.72;;;;;;;30.62;46.90;100657.94;4214310;28;20313;-58
2022/07/13 00:52:18;;;;;;;20.75;7.20;;;;;;;30.69;46.96;100671.44;4214303;28;20471;-58
2022/07/13 00:54:28;;;;;;;19.88;6.95;;;;;;;30.61;47.27;100662.75;4214205;28;20032;-58
2022/07/13 00:56:30;;;;;;;29.40;6.78;;;;;;;30.65;46.87;100665.66;4214473;28;20109;-58
2022/07/13 00:58:32;;;;;;;17.55;7.05;;;;;;;30.69;46.93;100679.91;4214149;28;20113;-58
2022/07/13 01:00:36;;;;;;;23.13;7.20;;;;;;;30.67;46.97;100674.63;4214662;28;20081;-58
2022/07/13 01:02:41;;;;;;;21.80;6.30;;;;;;;30.68;47.22;100683.91;4214465;28;20039;-59
2022/07/13 01:04:42;;;;;;;19.15;6.68;;;;;;;30.68;47.02;100692.41;4214382;28;20044;-59
2022/07/13 01:06:46;;;;;;;19.10;6.97;;;;;;;30.67;47.13;100677.47;4214391;28;20093;-58
2022/07/13 01:08:48;;;;;;;21.10;7.18;;;;;;;30.65;46.95;100668.50;4213580;28;20040;-58
2022/07/13 01:10:50;;;;;;;20.10;6.07;;;;;;;30.60;46.88;100668.75;4213986;28;20032;-58
2022/07/13 01:12:52;;;;;;;18.23;7.05;;;;;;;30.67;46.90;100685.94;4214309;28;20043;-58
2022/07/13 01:14:54;;;;;;;20.08;6.38;;;;;;;30.60;47.06;100677.22;4213780;28;20497;-58
2022/07/13 01:16:55;;;;;;;16.30;5.78;;;;;;;30.65;46.98;100679.78;4213869;28;20093;-58
2022/07/13 01:18:57;;;;;;;24.60;6.82;;;;;;;30.58;47.25;100668.28;4213398;28;20047;-58
2022/07/13 01:21:00;;;;;;;20.92;6.28;;;;;;;30.64;46.88;100666.84;4214162;28;20040;-58
2022/07/13 01:23:09;;;;;;;18.90;6.95;;;;;;;30.65;47.08;100676.97;4214187;28;20101;-58
2022/07/13 01:25:11;;;;;;;16.60;7.28;;;;;;;30.66;47.06;100670.16;4213718;28;20065;-58
2022/07/13 01:27:13;;;;;;;22.13;6.75;;;;;;;30.65;46.89;100662.84;4213910;28;20360;-59
2022/07/13 01:29:14;;;;;;;22.20;6.85;;;;;;;30.64;46.89;100662.03;4212344;28;20185;-59
2022/07/13 01:31:34;;;;;;;26.27;7.05;;;;;;;30.63;47.02;100668.03;4212871;28;20470;-59
2022/07/13 01:33:36;;;;;;;17.45;6.05;;;;;;;30.58;47.28;100662.63;4213965;28;20101;-58
2022/07/13 01:35:40;;;;;;;24.35;6.35;;;;;;;30.66;47.11;100680.66;4213929;28;20044;-58
2022/07/13 01:37:43;;;;;;;17.70;6.82;;;;;;;30.63;47.03;100687.81;4214227;28;20039;-61
2022/07/13 01:39:47;;;;;;;15.05;5.38;;;;;;;30.62;47.00;100691.81;4212284;28;20032;-58
2022/07/13 01:41:48;;;;;;;15.93;6.32;;;;;;;30.59;47.19;100695.34;4214375;28;20054;-58
2022/07/13 01:43:53;;;;;;;16.42;6.32;;;;;;;30.66;47.03;100721.00;4214682;28;20036;-58
2022/07/13 01:45:54;;;;;;;19.98;6.03;;;;;;;30.66;47.13;100742.78;4217470;28;20422;-58
2022/07/13 01:47:56;;;;;;;15.55;5.45;;;;;;;30.60;47.01;100728.88;4217448;28;20054;-58
2022/07/13 01:49:57;;;;;;;14.00;5.82;;;;;;;30.66;47.20;100737.94;4217165;28;20052;-58
2022/07/13 01:51:59;;;;;;;14.25;5.80;;;;;;;30.65;46.82;100730.63;4217014;28;20048;-58
2022/07/13 01:54:00;;;;;;;12.18;5.80;;;;;;;30.65;47.14;100724.97;4217019;28;20425;-58
2022/07/13 01:56:04;;;;;;;13.88;5.43;;;;;;;30.63;46.68;100721.69;4217416;28;20028;-60
2022/07/13 01:58:05;;;;;;;13.93;6.20;;;;;;;30.63;46.77;100724.53;4217249;28;20044;-60
2022/07/13 02:00:11;;;;;;;15.23;5.80;;;;;;;30.63;46.99;100725.34;4216665;28;20089;-59
2022/07/13 02:02:15;;;;;;;14.43;5.43;;;;;;;30.63;46.84;100722.53;4217301;28;20036;-59
2022/07/13 02:04:16;;;;;;;17.48;6.05;;;;;;;30.64;47.12;100712.03;4217092;28;20093;-59
2022/07/13 02:06:17;;;;;;;13.07;5.28;;;;;;;30.63;46.84;100704.75;4216922;28;20028;-59
2022/07/13 02:08:18;;;;;;;8.52;4.97;;;;;;;30.64;46.84;100712.03;4216564;28;20036;-60
2022/07/13 02:10:21;;;;;;;15.52;5.55;;;;;;;30.63;47.36;100704.75;4217198;28;20032;-59
2022/07/13 02:12:22;;;;;;;12.02;5.38;;;;;;;30.61;47.19;100693.81;4217014;28;20044;-59
2022/07/13 02:14:29;;;;;;;15.80;6.32;;;;;;;30.59;47.12;100681.22;4217063;28;20081;-59
2022/07/13 02:16:31;;;;;;;10.88;5.30;;;;;;;30.59;46.94;100672.75;4216769;28;20061;-60
2022/07/13 02:18:34;;;;;;;13.65;5.47;;;;;;;30.56;46.89;100676.25;4216395;28;20421;-59
2022/07/13 02:20:36;;;;;;;13.18;5.55;;;;;;;30.63;46.85;100699.94;4217010;28;20039;-59
2022/07/13 02:22:47;;;;;;;15.48;5.80;;;;;;;30.61;47.08;100690.19;4216495;28;20039;-59
2022/07/13 02:24:51;;;;;;;10.90;5.07;;;;;;;30.62;47.05;100691.81;4217068;28;20066;-59
2022/07/13 02:26:52;;;;;;;12.60;5.10;;;;;;;30.60;47.24;100689.31;4216836;28;20488;-59
2022/07/13 02:28:54;;;;;;;9.93;5.15;;;;;;;30.61;47.08;100695.81;4216325;28;20032;-59
2022/07/13 02:30:55;;;;;;;12.65;4.72;;;;;;;30.60;46.93;100697.81;4216920;28;20027;-59
2022/07/13 02:32:57;;;;;;;14.35;5.47;;;;;;;30.62;47.25;100703.13;4216292;28;20066;-59
2022/07/13 02:34:58;;;;;;;14.70;5.43;;;;;;;30.61;47.27;100696.66;4216402;28;20097;-59
2022/07/13 02:36:59;;;;;;;11.38;4.82;;;;;;;30.59;47.01;100689.69;4216360;28;20093;-58
2022/07/13 02:39:01;;;;;;;11.35;5.45;;;;;;;30.61;47.20;100709.94;4216291;28;20036;-58
2022/07/13 02:41:02;;;;;;;10.82;5.28;;;;;;;30.60;46.97;100709.09;4216388;28;20036;-58
2022/07/13 02:43:03;;;;;;;8.98;4.93;;;;;;;30.59;47.08;100710.28;4216628;28;20073;-58
2022/07/13 02:45:06;;;;;;;13.18;5.55;;;;;;;30.61;46.98;100712.78;4216504;28;20085;-58
2022/07/13 02:47:07;;;;;;;12.30;5.38;;;;;;;30.60;47.10;100713.91;4216207;28;20036;-58
2022/07/13 02:49:09;;;;;;;13.75;5.30;;;;;;;30.61;47.00;100721.25;4215772;28;20488;-58
2022/07/13 02:51:10;;;;;;;13.18;4.65;;;;;;;30.59;47.01;100718.75;4216350;28;20094;-58
2022/07/13 02:53:11;;;;;;;7.82;4.50;;;;;;;30.59;47.03;100721.56;4216127;28;20446;-59
2022/07/13 02:55:12;;;;;;;15.57;5.53;;;;;;;30.59;46.99;100727.22;4216077;28;20044;-59
2022/07/13 02:57:17;;;;;;;11.90;5.10;;;;;;;30.59;46.94;100723.56;4216264;28;20035;-59
2022/07/13 02:59:18;;;;;;;9.57;5.05;;;;;;;30.60;47.21;100716.75;4216309;28;20032;-59
2022/07/13 03:01:19;;;;;;;9.23;4.63;;;;;;;30.60;47.31;100716.75;4216245;28;20032;-59
2022/07/13 03:03:21;;;;;;;8.70;4.70;;;;;;;30.60;47.12;100722.41;4216238;28;20073;-59
2022/07/13 03:05:23;;;;;;;14.30;4.72;;;;;;;30.59;47.33;100726.41;4216349;28;20028;-59
2022/07/13 03:07:27;;;;;;;10.15;4.82;;;;;;;30.58;47.27;100736.88;4215808;28;20369;-59
2022/07/13 03:09:28;;;;;;;11.52;5.45;;;;;;;30.50;47.10;100729.34;4215567;28;20036;-59
2022/07/13 03:11:30;;;;;;;8.68;4.80;;;;;;;30.60;47.15;100750.63;4211795;28;20365;-59
2022/07/13 03:13:31;;;;;;;9.25;4.40;;;;;;;30.49;47.12;100743.81;4216126;28;20044;-58
2022/07/13 03:15:32;;;;;;;6.63;4.25;;;;;;;30.58;47.30;100762.28;4215807;28;20496;-59
2022/07/13 03:17:37;;;;;;;11.23;4.40;;;;;;;30.56;47.42;100761.84;4216158;28;20077;-60
2022/07/13 03:19:41;;;;;;;9.65;4.43;;;;;;;30.57;47.13;100765.47;4215941;28;20040;-60
2022/07/13 03:21:42;;;;;;;8.18;4.68;;;;;;;30.57;47.20;100768.31;4216056;28;20040;-59
2022/07/13 03:23:44;;;;;;;11.95;4.13;;;;;;;30.54;47.24;100763.34;4215701;28;20548;-59
2022/07/13 03:25:45;;;;;;;7.47;4.30;;;;;;;30.58;47.43;100781.25;4215592;28;20044;-58
2022/07/13 03:27:47;;;;;;;9.85;4.20;;;;;;;30.57;47.25;100791.72;4215497;28;20040;-58
2022/07/13 03:29:48;;;;;;;11.13;5.60;;;;;;;30.56;47.40;100807.00;4215400;28;20050;-58
2022/07/13 03:32:01;;;;;;;9.95;4.60;;;;;;;30.55;47.24;100804.53;4215542;28;20074;-58
2022/07/13 03:34:06;;;;;;;8.68;4.55;;;;;;;30.54;47.24;100802.88;4215812;28;20040;-58
2022/07/13 03:36:08;;;;;;;8.38;4.25;;;;;;;30.54;47.48;100802.88;4215829;28;20044;-59
2022/07/13 03:38:12;;;;;;;8.57;4.10;;;;;;;30.53;47.52;100802.06;4215253;28;20044;-59
2022/07/13 03:40:14;;;;;;;9.88;4.07;;;;;;;30.53;47.50;100816.19;4215292;28;20043;-59
2022/07/13 03:42:15;;;;;;;10.98;5.00;;;;;;;30.44;47.33;100798.50;4215625;28;20109;-59
2022/07/13 03:44:18;;;;;;;10.00;4.13;;;;;;;30.51;47.42;100814.88;4215172;28;20453;-58
2022/07/13 03:46:25;;;;;;;9.40;4.43;;;;;;;30.54;47.45;100811.34;4215323;28;20105;-59
2022/07/13 03:48:26;;;;;;;11.00;4.22;;;;;;;30.49;47.55;100808.75;4214823;28;20040;-59
2022/07/13 03:50:28;;;;;;;8.68;4.30;;;;;;;30.54;47.74;100820.66;4215108;28;20040;-59
2022/07/13 03:52:29;;;;;;;7.85;4.35;;;;;;;30.54;47.45;100817.00;4215450;28;20097;-58
2022/07/13 03:54:31;;;;;;;7.78;3.60;;;;;;;30.52;47.50;100822.19;4215072;28;20066;-58
2022/07/13 03:56:32;;;;;;;8.35;4.10;;;;;;;30.50;47.68;100824.53;4215425;28;20537;-59
2022/07/13 03:58:36;;;;;;;6.72;4.03;;;;;;;30.52;47.41;100834.31;4214920;28;20036;-58
2022/07/13 04:00:38;;;;;;;9.83;4.30;;;;;;;30.50;47.59;100836.63;4215495;28;20034;-58
2022/07/13 04:02:39;;;;;;;7.28;3.80;;;;;;;30.51;47.42;100831.81;4215516;28;20744;-58
2022/07/13 04:04:40;;;;;;;7.40;3.85;;;;;;;30.41;47.59;100813.31;4214878;28;20052;-58
2022/07/13 04:06:42;;;;;;;7.10;4.57;;;;;;;30.50;47.54;100830.16;4214447;28;20127;-59
2022/07/13 04:08:43;;;;;;;9.18;4.78;;;;;;;30.43;47.51;100813.00;4214562;28;20536;-58
2022/07/13 04:10:44;;;;;;;7.70;4.13;;;;;;;30.50;47.50;100818.88;4215230;28;20117;-59
2022/07/13 04:12:50;;;;;;;5.35;3.75;;;;;;;30.50;47.54;100818.88;4214788;28;20032;-58
2022/07/13 04:14:51;;;;;;;8.00;4.35;;;;;;;30.42;47.69;100811.31;4215018;28;20097;-58
2022/07/13 04:16:52;;;;;;;8.68;4.72;;;;;;;30.49;47.62;100820.06;4215009;28;20036;-58
2022/07/13 04:18:59;;;;;;;8.68;4.50;;;;;;;30.48;47.52;100826.88;4214557;28;20039;-58
2022/07/13 04:21:01;;;;;;;6.85;4.18;;;;;;;30.49;47.46;100822.88;4214860;28;20036;-58
2022/07/13 04:23:02;;;;;;;7.65;4.10;;;;;;;30.48;47.69;100833.34;4215007;28;20425;-58
2022/07/13 04:25:05;;;;;;;4.90;3.58;;;;;;;30.48;47.56;100821.22;4214789;28;20040;-58
2022/07/13 04:27:06;;;;;;;8.60;3.90;;;;;;;30.46;47.50;100818.75;4214617;28;20044;-59
2022/07/13 04:29:10;;;;;;;5.80;4.15;;;;;;;30.46;47.68;100812.28;4214457;28;20044;-58
2022/07/13 04:31:11;;;;;;;6.30;3.63;;;;;;;30.49;47.46;100814.41;4215157;28;20438;-58
2022/07/13 04:33:13;;;;;;;5.97;3.78;;;;;;;30.48;47.59;100816.41;4214844;28;20040;-58
2022/07/13 04:35:14;;;;;;;5.05;3.80;;;;;;;30.49;47.60;100811.59;4214358;28;20549;-58
2022/07/13 04:37:15;;;;;;;5.70;3.60;;;;;;;30.48;47.55;100816.41;4214952;28;20410;-58
2022/07/13 04:39:37;;;;;;;5.85;3.53;;;;;;;30.48;47.52;100812.75;4214130;28;20127;-58
2022/07/13 04:41:41;;;;;;;7.72;4.00;;;;;;;30.42;47.45;100806.50;4212737;28;20117;-58
2022/07/13 04:43:45;;;;;;;3.70;3.10;;;;;;;30.48;47.54;100809.94;4214733;28;20027;-58
2022/07/13 04:45:49;;;;;;;6.30;3.88;;;;;;;30.48;47.58;100798.66;4214346;28;20089;-58
2022/07/13 04:47:51;;;;;;;5.93;3.65;;;;;;;30.48;47.47;100799.47;4214661;28;20036;-58
2022/07/13 04:49:52;;;;;;;7.00;4.13;;;;;;;30.47;47.41;100780.88;4213140;28;20445;-58
2022/07/13 04:51:53;;;;;;;8.25;3.70;;;;;;;30.48;47.58;100781.69;4214244;28;20500;-58
2022/07/13 04:53:55;;;;;;;7.63;3.50;;;;;;;30.47;47.45;100780.88;4214682;28;20028;-59
2022/07/13 04:55:56;;;;;;;5.32;3.60;;;;;;;30.47;47.40;100777.22;4214012;28;20121;-59
2022/07/13 04:57:58;;;;;;;6.90;3.00;;;;;;;30.44;47.13;100769.47;4213249;28;20461;-58
2022/07/13 04:59:59;;;;;;;6.50;3.10;;;;;;;30.47;47.57;100780.03;4212615;28;20391;-58
2022/07/13 05:02:00;;;;;;;4.75;3.47;;;;;;;30.47;47.55;100782.84;4214187;28;20040;-58
2022/07/13 05:04:02;;;;;;;5.68;3.80;;;;;;;30.47;47.76;100796.97;4214320;28;20425;-59
2022/07/13 05:06:04;;;;;;;5.25;3.45;;;;;;;30.42;47.46;100786.72;4214307;28;20417;-59
2022/07/13 05:08:05;;;;;;;6.45;3.38;;;;;;;30.46;47.47;100798.97;4214405;28;20082;-59
2022/07/13 05:10:10;;;;;;;5.57;3.83;;;;;;;30.46;47.48;100806.63;4214093;28;20039;-58
2022/07/13 05:12:12;;;;;;;6.28;3.35;;;;;;;30.45;47.44;100811.44;4214018;28;20093;-58
2022/07/13 05:14:13;;;;;;;5.35;3.15;;;;;;;30.45;47.48;100804.97;4214241;28;20161;-58
2022/07/13 05:16:15;;;;;;;5.20;3.63;;;;;;;30.45;47.33;100811.44;4214270;28;20086;-58
2022/07/13 05:18:21;;;;;;;6.15;3.40;;;;;;;30.45;47.51;100804.97;4195351;28;20032;-58
2022/07/13 05:20:22;;;;;;;6.40;3.80;;;;;;;30.43;47.31;100801.69;4213991;28;20040;-58
2022/07/13 05:22:23;;;;;;;4.20;3.17;;;;;;;30.37;47.26;100793.41;4214251;28;20036;-58
2022/07/13 05:24:25;;;;;;;6.28;3.17;;;;;;;30.43;47.48;100804.53;4213832;28;20044;-58
2022/07/13 05:26:29;;;;;;;6.22;3.28;;;;;;;30.45;47.57;100804.97;4214352;28;20437;-58
2022/07/13 05:28:31;;;;;;;5.88;3.03;;;;;;;30.46;47.62;100817.91;4213642;28;20105;-58
2022/07/13 05:30:35;;;;;;;4.07;2.97;;;;;;;30.42;47.61;100814.97;4213790;28;20422;-58
2022/07/13 05:32:36;;;;;;;4.70;3.03;;;;;;;30.46;47.49;100815.09;4214267;28;20117;-58
2022/07/13 05:34:37;;;;;;;8.80;3.60;;;;;;;30.46;47.49;100812.28;4213910;28;20322;-58
2022/07/13 05:36:39;;;;;;;5.10;3.28;;;;;;;30.46;47.55;100826.38;4214372;28;20097;-58
2022/07/13 05:38:40;;;;;;;5.10;2.90;;;;;;;30.46;47.34;100829.22;4213632;28;20089;-58
2022/07/13 05:40:41;;;;;;;5.20;2.95;;;;;;;30.45;47.50;100836.03;4213698;28;20048;-58
2022/07/13 05:42:45;;;;;;;5.38;3.30;;;;;;;30.44;47.43;100837.22;4213859;28;20101;-58
2022/07/13 05:44:46;;;;;;;4.53;3.45;;;;;;;30.45;47.48;100838.88;4213392;28;20101;-58
2022/07/13 05:46:48;;;;;;;5.47;3.38;;;;;;;30.45;47.41;100855.81;4213270;28;20036;-58
2022/07/13 05:48:49;;;;;;;4.18;3.38;;;;;;;30.43;47.54;100847.69;4213277;28;20055;-59
2022/07/13 05:50:53;;;;;;;4.43;2.80;;;;;;;30.41;47.30;100837.91;4213989;28;20422;-58
2022/07/13 05:52:54;;;;;;;4.32;2.80;;;;;;;30.45;47.23;100850.97;4214098;28;20097;-58
2022/07/13 05:54:59;;;;;;;4.13;2.85;;;;;;;30.36;47.26;100839.78;4213690;28;20039;-58
2022/07/13 05:57:03;;;;;;;3.63;2.92;;;;;;;30.41;47.45;100849.19;4213604;28;20036;-58
2022/07/13 05:59:04;;;;;;;5.18;3.30;;;;;;;30.45;47.26;100855.81;4213390;28;20032;-58
2022/07/13 06:01:06;;;;;;;4.68;3.88;;;;;;;30.45;47.21;100867.09;4213990;28;20040;-58
2022/07/13 06:03:07;;;;;;;5.05;2.92;;;;;;;30.45;47.53;100864.28;4214068;28;20032;-59
2022/07/13 06:05:10;;;;;;;5.50;2.88;;;;;;;30.44;47.47;100871.91;4213603;28;20079;-58
2022/07/13 06:07:14;;;;;;;5.47;2.97;;;;;;;30.44;47.48;100876.75;4213596;28;20040;-58
2022/07/13 06:09:20;;;;;;;6.60;3.22;;;;;;;30.43;47.51;100880.75;4213212;28;20048;-58
2022/07/13 06:11:22;;;;;;;5.30;3.25;;;;;;;30.42;47.52;100876.25;4213820;28;20036;-59
2022/07/13 06:13:23;;;;;;;4.25;2.85;;;;;;;30.33;47.44;100859.41;4214183;28;20085;-58
2022/07/13 06:15:24;;;;;;;3.40;2.92;;;;;;;30.44;47.36;100882.41;4213721;28;20044;-59
2022/07/13 06:17:26;;;;;;;3.50;2.88;;;;;;;30.43;47.24;100886.41;4213814;28;20036;-58
2022/07/13 06:19:27;;;;;;;5.07;2.67;;;;;;;30.43;47.34;100897.69;4213711;28;20149;-58
2022/07/13 06:21:28;;;;;;;5.15;2.83;;;;;;;30.34;47.43;100878.84;4212739;28;20044;-58
2022/07/13 06:23:33;;;;;;;4.13;2.53;;;;;;;30.41;47.44;100885.91;4213915;28;20093;-57
2022/07/13 06:25:35;;;;;;;;;;;;;;;30.40;47.46;100887.91;4214537;28;20048;-58
2022/07/13 06:27:39;;;;;;;3.90;2.65;;;;;;;30.45;47.40;100879.22;4213729;28;19916;-58
2022/07/13 06:29:40;;;;;;;3.28;2.90;;;;;;;30.45;47.19;100878.38;4213475;28;20479;-58
2022/07/13 06:31:41;;;;;;;3.83;2.70;;;;;;;30.41;47.18;100880.25;4216781;28;20532;-58
2022/07/13 06:33:43;;;;;;;3.95;2.90;;;;;;;30.43;47.10;100886.41;4216539;28;20081;-58
2022/07/13 06:35:44;;;;;;;4.90;2.70;;;;;;;30.36;47.23;100878.47;4216417;28;20074;-58
2022/07/13 06:37:45;;;;;;;3.15;2.88;;;;;;;30.32;47.25;100869.03;4216903;28;20032;-57
2022/07/13 06:39:47;;;;;;;3.50;2.70;;;;;;;30.42;47.42;100884.72;4216192;28;20468;-58
2022/07/13 06:41:48;;;;;;;3.47;2.70;;;;;;;30.38;47.53;100873.31;4216645;28;20028;-58
2022/07/13 06:43:49;;;;;;;5.45;2.65;;;;;;;30.41;47.37;100877.44;4216721;28;20028;-57
2022/07/13 06:45:51;;;;;;;3.03;2.58;;;;;;;30.40;47.40;100881.44;4216661;28;20036;-58
2022/07/13 06:47:52;;;;;;;3.47;2.67;;;;;;;30.33;47.38;100865.03;4216453;28;20066;-58
2022/07/13 06:49:54;;;;;;;2.58;2.38;;;;;;;30.40;47.37;100867.31;4215965;28;20044;-57
2022/07/13 06:51:55;;;;;;;3.05;2.40;;;;;;;30.40;47.25;100876.59;4216143;28;20101;-58
2022/07/13 06:53:56;;;;;;;2.63;2.40;;;;;;;30.40;47.46;100881.44;4216548;28;20036;-58
2022/07/13 06:56:01;;;;;;;3.60;2.83;;;;;;;30.40;47.32;100875.78;4216247;28;20040;-57
2022/07/13 06:58:07;;;;;;;4.85;2.80;;;;;;;30.37;47.33;100872.47;4216373;28;20048;-58
2022/07/13 07:00:10;;;;;;;3.95;2.88;;;;;;;30.38;47.59;100868.50;4216132;28;20093;-58
2022/07/13 07:02:11;;;;;;;2.65;2.45;;;;;;;30.40;47.60;100865.31;4216439;28;20097;-58
2022/07/13 07:04:12;;;;;;;4.00;2.67;;;;;;;30.31;47.34;100859.75;4215901;28;20113;-58
2022/07/13 07:06:14;;;;;;;3.75;2.58;;;;;;;30.30;47.49;100860.13;4216325;28;20097;-58
2022/07/13 07:08:16;;;;;;;3.03;2.50;;;;;;;30.38;47.39;100868.50;4215984;28;20089;-58
2022/07/13 07:10:17;;;;;;;4.53;2.60;;;;;;;30.38;47.33;100871.31;4215111;28;20070;-58
2022/07/13 07:12:18;;;;;;;3.47;2.65;;;;;;;30.38;47.18;100862.84;4215848;28;20101;-58
2022/07/13 07:14:23;;;;;;;3.42;2.95;;;;;;;30.33;47.33;100863.06;4216116;28;20036;-58
2022/07/13 07:16:24;;;;;;;;;;;;;;;30.36;47.52;100872.81;4216604;28;20047;-58
2022/07/13 07:18:28;;;;;;;3.45;2.40;;;;;;;30.41;47.23;100863.31;4215748;28;19919;-58
2022/07/13 07:20:29;;;;;;;4.00;2.88;;;;;;;30.41;47.50;100860.50;4215700;28;20036;-58
2022/07/13 07:22:31;;;;;;;3.33;2.72;;;;;;;30.40;47.33;100861.66;4215800;28;20089;-58
2022/07/13 07:24:32;;;;;;;3.72;2.80;;;;;;;30.40;47.38;100870.16;4215807;28;20040;-58
2022/07/13 07:26:42;;;;;;;3.20;2.60;;;;;;;30.38;47.21;100862.84;4215661;28;20487;-58
2022/07/13 07:28:43;;;;;;;3.33;2.53;;;;;;;30.37;47.46;100861.19;4215360;28;20480;-58
2022/07/13 07:30:47;;;;;;;3.08;2.35;;;;;;;30.37;47.29;100855.53;4215682;28;20097;-58
2022/07/13 07:32:49;;;;;;;3.45;2.40;;;;;;;30.37;47.42;100855.53;4215532;28;20039;-58
2022/07/13 07:34:53;;;;;;;2.92;2.42;;;;;;;30.19;47.55;100828.66;4215422;28;20032;-58
2022/07/13 07:36:55;;;;;;;2.30;2.10;;;;;;;30.29;47.22;100850.81;4215883;28;20040;-58
2022/07/13 07:38:59;;;;;;;2.67;2.30;;;;;;;30.37;47.44;100866.00;4215233;28;20032;-58
2022/07/13 07:41:01;;;;;;;2.50;2.20;;;;;;;30.36;47.53;100859.53;4215021;28;20113;-58
2022/07/13 07:43:02;;;;;;;3.60;3.10;;;;;;;30.36;47.52;100853.88;4215202;28;20101;-58
2022/07/13 07:45:05;;;;;;;3.05;2.33;;;;;;;30.35;47.21;100857.88;4215218;28;20043;-58
2022/07/13 07:47:09;;;;;;;3.50;2.40;;;;;;;30.30;47.46;100858.13;4215178;28;20479;-58
2022/07/13 07:49:10;;;;;;;2.50;2.30;;;;;;;30.34;47.50;100867.53;4214741;28;20081;-58
2022/07/13 07:51:14;;;;;;;3.60;2.67;;;;;;;29.31;47.38;100706.47;4215573;28;20032;-58
2022/07/13 07:53:16;;;;;;;2.95;2.40;;;;;;;30.33;47.38;100877.19;4215743;28;20031;-58
2022/07/13 07:55:17;;;;;;;2.92;2.47;;;;;;;30.34;47.37;100878.00;4215078;28;20471;-58
2022/07/13 07:57:19;;;;;;;2.50;2.30;;;;;;;30.33;47.40;100882.84;4215311;28;20044;-59
2022/07/13 07:59:20;;;;;;;3.13;2.50;;;;;;;30.33;47.25;100881.97;4215189;28;20085;-58
2022/07/13 08:01:21;;;;;;;2.55;2.13;;;;;;;30.33;47.46;100882.84;4215461;28;20044;-58
2022/07/13 08:03:23;;;;;;;2.65;2.45;;;;;;;30.23;47.36;100855.00;4215032;28;20101;-58
2022/07/13 08:05:27;;;;;;;2.72;2.33;;;;;;;30.32;47.31;100875.50;4215225;28;20117;-58
2022/07/13 08:07:30;;;;;;;3.75;2.33;;;;;;;30.33;47.49;100871.53;4214935;28;20036;-58
2022/07/13 08:09:31;;;;;;;2.72;2.42;;;;;;;30.32;47.22;100881.16;4215276;28;20032;-58
2022/07/13 08:11:33;;;;;;;2.40;2.20;;;;;;;30.28;47.64;100877.38;4214951;28;20039;-58
2022/07/13 08:13:34;;;;;;;2.50;2.25;;;;;;;30.31;47.30;100885.16;4215237;28;20116;-58
2022/07/13 08:15:35;;;;;;;2.33;2.13;;;;;;;30.31;47.44;100882.34;4214904;28;20267;-58
2022/07/13 08:17:39;;;;;;;3.33;2.22;;;;;;;30.31;47.24;100887.97;4214838;28;20045;-58
2022/07/13 08:19:40;;;;;;;3.00;2.60;;;;;;;30.30;47.56;100889.16;4214306;28;20105;-58
2022/07/13 08:21:41;;;;;;;3.45;2.08;;;;;;;30.30;47.29;100894.00;4214805;28;20085;-59
2022/07/13 08:23:51;;;;;;;2.50;2.30;;;;;;;30.23;47.57;100893.72;4214795;28;20464;-58
2022/07/13 08:25:53;;;;;;;4.35;2.45;;;;;;;30.30;47.37;100908.94;4214914;28;20101;-58
2022/07/13 08:27:54;;;;;;;3.67;2.30;;;;;;;30.30;47.49;100903.28;4215166;28;20032;-58
2022/07/13 08:30:01;;;;;;;2.67;2.47;;;;;;;30.30;47.40;100911.75;4214227;28;20036;-58
2022/07/13 08:32:05;;;;;;;3.50;2.60;;;;;;;30.29;47.44;100912.94;4214911;28;20036;-58
2022/07/13 08:38:47;;;;;;;4.07;2.30;;;;;;;30.29;47.29;100912.94;4214949;28;20433;-58
2022/07/13 08:40:48;;;;;;;2.20;2.00;;;;;;;30.24;47.35;100904.66;4214455;28;20039;-58
2022/07/13 08:42:52;;;;;;;3.20;2.30;;;;;;;30.28;47.52;100908.44;4214799;28;20093;-59
2022/07/13 08:44:56;;;;;;;3.60;2.40;;;;;;;30.20;47.65;100903.72;4214652;28;20043;-59
2022/07/13 08:47:00;;;;;;;2.60;2.10;;;;;;;30.29;47.43;100914.94;4214465;28;20437;-59
2022/07/13 08:49:02;;;;;;;2.90;2.33;;;;;;;30.28;47.51;100919.72;4213811;28;20145;-59
2022/07/13 08:51:05;;;;;;;2.58;2.20;;;;;;;30.28;47.39;100918.91;4214699;28;20047;-59
2022/07/13 08:53:06;;;;;;;2.22;1.92;;;;;;;30.29;47.34;100917.75;4214107;28;20052;-59
2022/07/13 08:55:11;;;;;;;2.60;2.40;;;;;;;30.27;47.32;100912.44;4214563;28;20036;-58
2022/07/13 08:57:13;;;;;;;2.65;2.40;;;;;;;30.24;47.39;100907.50;4214121;28;20094;-59
2022/07/13 08:59:15;;;;;;;2.85;1.92;;;;;;;30.27;47.33;100912.44;4213525;28;20070;-59
2022/07/13 09:01:16;;;;;;;2.92;2.63;;;;;;;30.28;47.30;100918.91;4212633;28;20047;-58
2022/07/13 09:03:17;;;;;;;2.03;1.92;;;;;;;30.26;47.55;100922.06;4214098;28;20097;-59
2022/07/13 09:05:22;;;;;;;2.95;2.20;;;;;;;30.26;47.41;100930.53;4213951;28;20044;-59
2022/07/13 09:07:30;;;;;;;3.92;2.40;;;;;;;30.26;47.67;100926.91;4214134;28;20476;-59
2022/07/13 09:09:38;;;;;;;3.97;2.50;;;;;;;30.26;47.77;100929.72;4214126;28;20046;-59
2022/07/13 09:11:39;;;;;;;2.35;2.15;;;;;;;30.25;47.46;100931.72;4214413;28;20090;-59
2022/07/13 09:13:42;;;;;;;3.25;2.20;;;;;;;30.25;47.49;100931.72;4214124;28;20102;-58
2022/07/13 09:15:45;;;;;;;2.80;2.38;;;;;;;30.25;47.55;100943.00;4214235;28;20040;-58
2022/07/13 09:17:47;;;;;;;2.97;2.73;;;;;;;30.25;47.59;100943.00;4214224;28;20039;-58
2022/07/13 09:19:49;;;;;;;2.40;2.20;;;;;;;30.25;47.31;100948.66;4213611;28;20276;-58
2022/07/13 09:21:51;;;;;;;2.97;2.30;;;;;;;30.25;47.63;100936.53;4213953;28;20089;-59
2022/07/13 09:23:58;;;;;;;2.88;2.15;;;;;;;30.24;47.53;100947.00;4214460;28;20417;-59
2022/07/13 09:26:02;;;;;;;3.00;2.28;;;;;;;30.23;47.53;100950.97;4213939;28;20044;-58
2022/07/13 09:28:05;;;;;;;2.55;2.35;;;;;;;30.24;47.66;100958.31;4212454;28;20040;-59
2022/07/13 09:30:20;;;;;;;2.05;1.95;;;;;;;30.22;47.71;100966.28;4214067;28;20108;-58
2022/07/13 09:32:22;;;;;;;2.47;2.28;;;;;;;30.20;47.48;100957.34;4213288;28;20040;-59